Kantata — LYBD — position and weather

sailwx.info

Track history (hours):
 
Tides and Currents Weather Stations Pressure Air Temp Water Temp Dewpoint Dewpoint Depression Visibility Wind Speed Wind Dir Waves Ship Positions

Kantata

Last reported at 2018-Jul-13 05:26 UTC. Time now 2018-Jul-15 20:55 UTC.
Position N 36°55' E 006°55'.

Length 147 m; draft 8.5 m.

Type: Cargo ship. MMSI: 277549000.

Date/timePositionNaut miles runAvg speedWind from/ knotsBaromVisibWave heightAir tempDewpointWater temp
2018-Jul-13 05:26N 36°55' E 006°55'0 0.1
2018-Jul-13 04:56N 36°55' E 006°55'0 0.1
2018-Jul-13 03:14N 36°55' E 006°55'0 0.2
2018-Jul-13 02:59N 36°55' E 006°55'2 3.1
2018-Jul-13 02:28N 36°57' E 006°54'4 8.1
2018-Jul-13 02:00N 36°60' E 006°52'8 9.8
2018-Jul-13 01:13N 37°04' E 006°43'5 9.7
2018-Jul-13 00:46N 37°06' E 006°39'22 9.9
2018-Jul-12 22:32N 37°16' E 006°14'110.5
2018-Jul-12 22:24N 37°16' E 006°12'410.5
2018-Jul-12 22:00N 37°18' E 006°07'510.1
2018-Jul-12 21:30N 37°19' E 006°01'510.1
2018-Jul-12 21:00N 37°21' E 005°55'510.1
2018-Jul-12 20:30N 37°23' E 005°49'5 9.8
2018-Jul-12 20:00N 37°25' E 005°44'5 9.8
2018-Jul-12 19:30N 37°26' E 005°38'5 9.6
2018-Jul-12 19:00N 37°28' E 005°32'5 9.5
2018-Jul-12 18:29N 37°30' E 005°26'5 9.3
2018-Jul-12 17:59N 37°31' E 005°21'5 9.4
2018-Jul-12 17:30N 37°32' E 005°15'5 9.1
2018-Jul-12 17:00N 37°34' E 005°10'5 9.3
2018-Jul-12 16:30N 37°36' E 005°05'5 9.5
2018-Jul-12 16:00N 37°38' E 004°59'9 9.6
2018-Jul-12 15:01N 37°40' E 004°48'1 9.9
2018-Jul-12 14:55N 37°41' E 004°46'3410.4
2018-Jul-12 11:36N 37°51' E 004°05'211.6
2018-Jul-12 11:27N 37°52' E 004°03'511.9
2018-Jul-12 11:00N 37°53' E 003°56'612.1
2018-Jul-12 10:30N 37°55' E 003°49'612.1
2018-Jul-12 10:00N 37°57' E 003°42'712.2
2018-Jul-12 09:27N 37°60' E 003°34'512.1
2018-Jul-12 09:00N 38°02' E 003°27'611.9
2018-Jul-12 08:30N 38°04' E 003°20'2211.6
2018-Jul-12 06:38N 38°11' E 002°54'211.4
2018-Jul-12 06:29N 38°12' E 002°52'611.6
2018-Jul-12 06:00N 38°13' E 002°46'611.6
2018-Jul-12 05:30N 38°15' E 002°38'4111.7
2018-Jul-12 01:59N 38°28' E 001°49'611.5
2018-Jul-12 01:30N 38°30' E 001°42'711.5
2018-Jul-12 00:52N 38°32' E 001°33'411.4
2018-Jul-12 00:30N 38°33' E 001°28'611.3
2018-Jul-12 00:00N 38°35' E 001°21'611.1
2018-Jul-11 23:28N 38°38' E 001°15'3711.3
2018-Jul-11 20:13N 38°59' E 000°36'4510.9
2018-Jul-11 16:08N 39°24' W 000°12'211.2
2018-Jul-11 15:57N 39°24' W 000°14'4 9.0
2018-Jul-11 15:29N 39°26' W 000°19'0 0.3
2018-Jul-11 14:33N 39°26' W 000°20'0 0.1
2018-Jul-11 14:30N 39°26' W 000°20'0 0.0
2018-Jul-11 14:00N 39°26' W 000°20'0 0.0
2018-Jul-11 13:29N 39°26' W 000°20'0 0.0
2018-Jul-11 12:32N 39°26' W 000°20'0 0.1
2018-Jul-11 12:30N 39°26' W 000°20'0 0.0
2018-Jul-11 10:59N 39°26' W 000°20'0 0.0
2018-Jul-11 07:59N 39°26' W 000°20'0 0.0
2018-Jul-11 07:22N 39°26' W 000°20'0 0.0
2018-Jul-11 06:56N 39°26' W 000°20'0 0.0
2018-Jul-11 06:30N 39°26' W 000°20'0 0.0
2018-Jul-11 06:00N 39°26' W 000°20'0 0.0
2018-Jul-11 05:30N 39°26' W 000°20'0 0.0
2018-Jul-11 05:00N 39°26' W 000°20'0 0.0
2018-Jul-11 04:30N 39°26' W 000°20'0 0.0
2018-Jul-11 03:59N 39°26' W 000°20'0 0.0
2018-Jul-11 03:29N 39°26' W 000°20'0 0.0
2018-Jul-11 02:59N 39°26' W 000°20'0 0.0
2018-Jul-11 02:27N 39°26' W 000°20'0 0.0
2018-Jul-11 01:58N 39°26' W 000°20'0 0.0
2018-Jul-11 00:04N 39°26' W 000°20'0 0.0
2018-Jul-10 23:59N 39°26' W 000°20'0 0.0
2018-Jul-10 23:30N 39°26' W 000°20'0 0.0
2018-Jul-10 21:37N 39°26' W 000°20'0 0.4
2018-Jul-10 21:25N 39°26' W 000°20'0 0.1
2018-Jul-10 18:34N 39°26' W 000°20'0 0.0
2018-Jul-10 18:25N 39°26' W 000°20'0 0.0
2018-Jul-10 17:53N 39°26' W 000°20'0 0.0
2018-Jul-10 17:24N 39°26' W 000°20'0 0.0
2018-Jul-10 16:22N 39°26' W 000°20'0 0.0
2018-Jul-10 16:00N 39°26' W 000°20'0 0.0
2018-Jul-10 15:30N 39°26' W 000°20'0 0.0
2018-Jul-10 14:57N 39°26' W 000°20'0 0.0
2018-Jul-10 14:28N 39°26' W 000°20'0 0.0
2018-Jul-10 13:55N 39°26' W 000°20'0 0.0
2018-Jul-10 13:16N 39°26' W 000°20'0 0.0
2018-Jul-10 12:57N 39°26' W 000°20'0 0.0
2018-Jul-10 12:27N 39°26' W 000°20'0 0.0
2018-Jul-10 12:00N 39°26' W 000°20'0 0.0
2018-Jul-10 11:29N 39°26' W 000°20'0 0.0
2018-Jul-10 10:34N 39°26' W 000°20'0 0.2
2018-Jul-10 10:30N 39°26' W 000°20'0 0.0
2018-Jul-10 09:59N 39°26' W 000°20'0 0.0
2018-Jul-10 09:22N 39°26' W 000°20'0 0.0
2018-Jul-10 08:39N 39°26' W 000°20'0 0.1
2018-Jul-10 08:30N 39°26' W 000°20'0 0.0
2018-Jul-10 07:59N 39°26' W 000°20'1 1.3
2018-Jul-10 07:30N 39°26' W 000°19'5 8.7
2018-Jul-10 06:58N 39°25' W 000°13'1 1.5
2018-Jul-10 06:09N 39°24' W 000°12'4111.5
2018-Jul-10 02:37N 38°56' E 000°26'212.6
2018-Jul-10 02:29N 38°55' E 000°28'1212.5
2018-Jul-10 01:30N 38°46' E 000°38'1212.6
2018-Jul-10 00:32N 38°38' E 000°50'112.4
2018-Jul-10 00:29N 38°37' E 000°50'812.4
2018-Jul-09 23:48N 38°31' E 000°58'412.2
2018-Jul-09 23:30N 38°29' E 001°01'2212.0
2018-Jul-09 21:42N 38°13' E 001°20'312.1
2018-Jul-09 21:26N 38°11' E 001°23'512.2
2018-Jul-09 21:00N 38°07' E 001°28'612.4
2018-Jul-09 20:30N 38°03' E 001°34'612.3
2018-Jul-09 20:00N 37°59' E 001°39'612.4
2018-Jul-09 19:29N 37°54' E 001°45'712.5
2018-Jul-09 18:57N 37°49' E 001°51'612.6
2018-Jul-09 18:30N 37°45' E 001°56'612.5
2018-Jul-09 18:00N 37°41' E 002°01'612.5
2018-Jul-09 17:30N 37°36' E 002°07'612.7
2018-Jul-09 17:00N 37°32' E 002°13'612.7
2018-Jul-09 16:30N 37°27' E 002°18'612.5
2018-Jul-09 16:00N 37°23' E 002°24'612.3
2018-Jul-09 15:30N 37°19' E 002°29'612.2
2018-Jul-09 15:00N 37°15' E 002°35'612.2
2018-Jul-09 14:30N 37°10' E 002°41'612.3
2018-Jul-09 13:59N 37°06' E 002°46'612.4
2018-Jul-09 13:30N 37°01' E 002°51'612.8
2018-Jul-09 13:00N 36°57' E 002°57'712.8
2018-Jul-09 12:29N 36°52' E 003°03'6 0.3
2018-Jul-08 11:40N 36°46' E 003°04'0 0.0
2018-Jul-08 11:28N 36°46' E 003°04'0 0.0
2018-Jul-08 02:30N 36°46' E 003°04'0 0.0
2018-Jul-08 02:00N 36°46' E 003°04'0 0.0
2018-Jul-08 01:30N 36°46' E 003°04'0 0.0
2018-Jul-08 01:00N 36°46' E 003°04'0 0.0
2018-Jul-08 00:30N 36°46' E 003°04'0 0.0
2018-Jul-08 00:00N 36°46' E 003°04'0 0.0
2018-Jul-07 23:30N 36°46' E 003°04'0 0.0
2018-Jul-07 23:01N 36°46' E 003°04'0 0.0
2018-Jul-07 22:29N 36°46' E 003°04'0 0.0
2018-Jul-07 22:00N 36°46' E 003°04'0 0.0
2018-Jul-07 19:01N 36°46' E 003°04'0 0.3
2018-Jul-07 19:00N 36°46' E 003°04'0 0.0
2018-Jul-07 18:30N 36°46' E 003°04'0 0.0
2018-Jul-07 17:56N 36°46' E 003°04'0 0.0
2018-Jul-07 17:31N 36°46' E 003°04'153 3.2
2018-Jul-05 18:12N 39°14' E 002°17'211.0
2018-Jul-05 18:00N 39°16' E 002°16'11710.7
2018-Jul-05 07:09N 41°13' E 002°11'310.4
2018-Jul-05 06:53N 41°15' E 002°11'4 9.3
2018-Jul-05 06:30N 41°19' E 002°10'1 1.4
2018-Jul-05 06:00N 41°19' E 002°09'0 0.0
2018-Jul-05 05:29N 41°19' E 002°09'0 0.0
2018-Jul-05 04:59N 41°19' E 002°09'0 0.0
2018-Jul-05 04:29N 41°19' E 002°09'0 0.0
2018-Jul-05 04:00N 41°19' E 002°09'0 0.0
2018-Jul-05 03:30N 41°19' E 002°09'0 0.0
2018-Jul-05 03:00N 41°19' E 002°09'0 0.0
2018-Jul-05 02:30N 41°19' E 002°09'0 0.0
2018-Jul-05 02:00N 41°19' E 002°09'0 0.0
2018-Jul-05 01:30N 41°19' E 002°09'0 0.0
2018-Jul-05 01:00N 41°19' E 002°09'0 0.0
2018-Jul-05 00:21N 41°19' E 002°09'0 0.0
2018-Jul-05 00:00N 41°19' E 002°09'0 0.0
2018-Jul-04 23:30N 41°19' E 002°09'0 0.0
2018-Jul-04 23:00N 41°19' E 002°09'0 0.0
2018-Jul-04 22:30N 41°19' E 002°09'0 0.0
2018-Jul-04 22:00N 41°19' E 002°09'0 0.0
2018-Jul-04 21:30N 41°19' E 002°09'0 0.0
2018-Jul-04 21:00N 41°19' E 002°09'0 0.0
2018-Jul-04 20:30N 41°19' E 002°09'0 0.0
2018-Jul-04 20:00N 41°19' E 002°09'0 0.0
2018-Jul-04 19:28N 41°19' E 002°09'0 0.0
2018-Jul-04 18:58N 41°19' E 002°09'0 0.0
2018-Jul-04 18:28N 41°19' E 002°09'0 0.0
2018-Jul-04 17:58N 41°19' E 002°09'0 0.0
2018-Jul-04 17:28N 41°19' E 002°09'0 0.0
2018-Jul-04 16:58N 41°19' E 002°09'0 0.0
2018-Jul-04 16:28N 41°19' E 002°09'0 0.0
2018-Jul-04 15:58N 41°19' E 002°09'0 0.0
2018-Jul-04 15:25N 41°19' E 002°09'0 0.0
2018-Jul-04 14:58N 41°19' E 002°09'0 0.0
2018-Jul-04 14:28N 41°19' E 002°09'0 0.0
2018-Jul-04 13:55N 41°19' E 002°09'0 0.0
2018-Jul-04 13:25N 41°19' E 002°09'0 0.0
2018-Jul-04 12:58N 41°19' E 002°09'0 0.0
2018-Jul-04 12:28N 41°19' E 002°09'0 0.0
2018-Jul-04 11:58N 41°19' E 002°09'0 0.0
2018-Jul-04 11:28N 41°19' E 002°09'0 0.0
2018-Jul-04 10:58N 41°19' E 002°09'0 0.0
2018-Jul-04 10:22N 41°19' E 002°09'0 0.0
2018-Jul-04 09:58N 41°19' E 002°09'0 0.0
2018-Jul-04 09:28N 41°19' E 002°09'0 0.0
2018-Jul-04 08:52N 41°19' E 002°09'0 0.0
2018-Jul-04 08:30N 41°19' E 002°09'2 3.3
2018-Jul-04 08:00N 41°18' E 002°11'2 4.8
2018-Jul-04 07:30N 41°18' E 002°14'2 4.2
2018-Jul-04 07:00N 41°19' E 002°16'2 4.1
2018-Jul-04 06:24N 41°20' E 002°19'0 0.5
2018-Jul-04 05:54N 41°20' E 002°19'0 0.5
2018-Jul-04 05:30N 41°20' E 002°19'0 0.5
2018-Jul-04 05:00N 41°20' E 002°19'1 0.3
2018-Jul-04 02:53N 41°19' E 002°18'0 0.7
2018-Jul-04 02:30N 41°19' E 002°18'4 7.8
2018-Jul-04 02:00N 41°21' E 002°22'710.3
2018-Jul-04 01:20N 41°24' E 002°31'810.1
2018-Jul-04 00:33N 41°28' E 002°40'110.1
2018-Jul-04 00:27N 41°29' E 002°41'1710.2
2018-Jul-03 22:46N 41°37' E 003°01'310.5
2018-Jul-03 22:31N 41°38' E 003°04'710.3
2018-Jul-03 21:49N 41°42' E 003°12'310.2
2018-Jul-03 21:31N 41°43' E 003°16'610.2
2018-Jul-03 20:57N 41°46' E 003°22'910.4
2018-Jul-03 20:03N 41°53' E 003°31'010.3
2018-Jul-03 20:00N 41°54' E 003°32'5010.6
2018-Jul-03 15:18N 42°31' E 004°15'510.9
2018-Jul-03 14:51N 42°35' E 004°19'410.8
2018-Jul-03 14:30N 42°38' E 004°23'510.8
2018-Jul-03 14:00N 42°42' E 004°27'3810.4
2018-Jul-03 10:21N 43°11' E 005°00'410.7
2018-Jul-03 10:00N 43°15' E 004°60'510.8
2018-Jul-03 09:31N 43°20' E 004°58'5 8.9
2018-Jul-03 09:00N 43°24' E 004°55'3 6.4
2018-Jul-03 08:29N 43°25' E 004°50'0 0.0
2018-Jul-03 07:59N 43°25' E 004°50'0 0.0
2018-Jul-03 07:20N 43°25' E 004°50'0 0.0
2018-Jul-03 06:45N 43°25' E 004°50'0 0.0
2018-Jul-03 06:21N 43°25' E 004°50'0 0.0
2018-Jul-03 05:51N 43°25' E 004°50'0 0.0
2018-Jul-03 05:30N 43°25' E 004°50'  
Track history (hours):
 
Tides and Currents Weather Stations Pressure Air Temp Water Temp Dewpoint Dewpoint Depression Visibility Wind Speed Wind Dir Waves Ship Positions

Kantata

Last reported at 2018-Jul-13 05:26 UTC. Time now 2018-Jul-15 20:55 UTC.
Position N 36°55' E 006°55'.

Length 147 m; draft 8.5 m.

Type: Cargo ship. MMSI: 277549000.

Date/timePositionNaut miles runAvg speedWind from/ knotsBaromVisibWave heightAir tempDewpointWater temp
2018-Jul-13 05:26N 36°55' E 006°55'0 0.1
2018-Jul-13 04:56N 36°55' E 006°55'0 0.1
2018-Jul-13 03:14N 36°55' E 006°55'0 0.2
2018-Jul-13 02:59N 36°55' E 006°55'2 3.1
2018-Jul-13 02:28N 36°57' E 006°54'4 8.1
2018-Jul-13 02:00N 36°60' E 006°52'8 9.8
2018-Jul-13 01:13N 37°04' E 006°43'5 9.7
2018-Jul-13 00:46N 37°06' E 006°39'22 9.9
2018-Jul-12 22:32N 37°16' E 006°14'110.5
2018-Jul-12 22:24N 37°16' E 006°12'410.5
2018-Jul-12 22:00N 37°18' E 006°07'510.1
2018-Jul-12 21:30N 37°19' E 006°01'510.1
2018-Jul-12 21:00N 37°21' E 005°55'510.1
2018-Jul-12 20:30N 37°23' E 005°49'5 9.8
2018-Jul-12 20:00N 37°25' E 005°44'5 9.8
2018-Jul-12 19:30N 37°26' E 005°38'5 9.6
2018-Jul-12 19:00N 37°28' E 005°32'5 9.5
2018-Jul-12 18:29N 37°30' E 005°26'5 9.3
2018-Jul-12 17:59N 37°31' E 005°21'5 9.4
2018-Jul-12 17:30N 37°32' E 005°15'5 9.1
2018-Jul-12 17:00N 37°34' E 005°10'5 9.3
2018-Jul-12 16:30N 37°36' E 005°05'5 9.5
2018-Jul-12 16:00N 37°38' E 004°59'9 9.6
2018-Jul-12 15:01N 37°40' E 004°48'1 9.9
2018-Jul-12 14:55N 37°41' E 004°46'3410.4
2018-Jul-12 11:36N 37°51' E 004°05'211.6
2018-Jul-12 11:27N 37°52' E 004°03'511.9
2018-Jul-12 11:00N 37°53' E 003°56'612.1
2018-Jul-12 10:30N 37°55' E 003°49'612.1
2018-Jul-12 10:00N 37°57' E 003°42'712.2
2018-Jul-12 09:27N 37°60' E 003°34'512.1
2018-Jul-12 09:00N 38°02' E 003°27'611.9
2018-Jul-12 08:30N 38°04' E 003°20'2211.6
2018-Jul-12 06:38N 38°11' E 002°54'211.4
2018-Jul-12 06:29N 38°12' E 002°52'611.6
2018-Jul-12 06:00N 38°13' E 002°46'611.6
2018-Jul-12 05:30N 38°15' E 002°38'4111.7
2018-Jul-12 01:59N 38°28' E 001°49'611.5
2018-Jul-12 01:30N 38°30' E 001°42'711.5
2018-Jul-12 00:52N 38°32' E 001°33'411.4
2018-Jul-12 00:30N 38°33' E 001°28'611.3
2018-Jul-12 00:00N 38°35' E 001°21'611.1
2018-Jul-11 23:28N 38°38' E 001°15'3711.3
2018-Jul-11 20:13N 38°59' E 000°36'4510.9
2018-Jul-11 16:08N 39°24' W 000°12'211.2
2018-Jul-11 15:57N 39°24' W 000°14'4 9.0
2018-Jul-11 15:29N 39°26' W 000°19'0 0.3
2018-Jul-11 14:33N 39°26' W 000°20'0 0.1
2018-Jul-11 14:30N 39°26' W 000°20'0 0.0
2018-Jul-11 14:00N 39°26' W 000°20'0 0.0
2018-Jul-11 13:29N 39°26' W 000°20'0 0.0
2018-Jul-11 12:32N 39°26' W 000°20'0 0.1
2018-Jul-11 12:30N 39°26' W 000°20'0 0.0
2018-Jul-11 10:59N 39°26' W 000°20'0 0.0
2018-Jul-11 07:59N 39°26' W 000°20'0 0.0
2018-Jul-11 07:22N 39°26' W 000°20'0 0.0
2018-Jul-11 06:56N 39°26' W 000°20'0 0.0
2018-Jul-11 06:30N 39°26' W 000°20'0 0.0
2018-Jul-11 06:00N 39°26' W 000°20'0 0.0
2018-Jul-11 05:30N 39°26' W 000°20'0 0.0
2018-Jul-11 05:00N 39°26' W 000°20'0 0.0
2018-Jul-11 04:30N 39°26' W 000°20'0 0.0
2018-Jul-11 03:59N 39°26' W 000°20'0 0.0
2018-Jul-11 03:29N 39°26' W 000°20'0 0.0
2018-Jul-11 02:59N 39°26' W 000°20'0 0.0
2018-Jul-11 02:27N 39°26' W 000°20'0 0.0
2018-Jul-11 01:58N 39°26' W 000°20'0 0.0
2018-Jul-11 00:04N 39°26' W 000°20'0 0.0
2018-Jul-10 23:59N 39°26' W 000°20'0 0.0
2018-Jul-10 23:30N 39°26' W 000°20'0 0.0
2018-Jul-10 21:37N 39°26' W 000°20'0 0.4
2018-Jul-10 21:25N 39°26' W 000°20'0 0.1
2018-Jul-10 18:34N 39°26' W 000°20'0 0.0
2018-Jul-10 18:25N 39°26' W 000°20'0 0.0
2018-Jul-10 17:53N 39°26' W 000°20'0 0.0
2018-Jul-10 17:24N 39°26' W 000°20'0 0.0
2018-Jul-10 16:22N 39°26' W 000°20'0 0.0
2018-Jul-10 16:00N 39°26' W 000°20'0 0.0
2018-Jul-10 15:30N 39°26' W 000°20'0 0.0
2018-Jul-10 14:57N 39°26' W 000°20'0 0.0
2018-Jul-10 14:28N 39°26' W 000°20'0 0.0
2018-Jul-10 13:55N 39°26' W 000°20'0 0.0
2018-Jul-10 13:16N 39°26' W 000°20'0 0.0
2018-Jul-10 12:57N 39°26' W 000°20'0 0.0
2018-Jul-10 12:27N 39°26' W 000°20'0 0.0
2018-Jul-10 12:00N 39°26' W 000°20'0 0.0
2018-Jul-10 11:29N 39°26' W 000°20'0 0.0
2018-Jul-10 10:34N 39°26' W 000°20'0 0.2
2018-Jul-10 10:30N 39°26' W 000°20'0 0.0
2018-Jul-10 09:59N 39°26' W 000°20'0 0.0
2018-Jul-10 09:22N 39°26' W 000°20'0 0.0
2018-Jul-10 08:39N 39°26' W 000°20'0 0.1
2018-Jul-10 08:30N 39°26' W 000°20'0 0.0
2018-Jul-10 07:59N 39°26' W 000°20'1 1.3
2018-Jul-10 07:30N 39°26' W 000°19'5 8.7
2018-Jul-10 06:58N 39°25' W 000°13'1 1.5
2018-Jul-10 06:09N 39°24' W 000°12'4111.5
2018-Jul-10 02:37N 38°56' E 000°26'212.6
2018-Jul-10 02:29N 38°55' E 000°28'1212.5
2018-Jul-10 01:30N 38°46' E 000°38'1212.6
2018-Jul-10 00:32N 38°38' E 000°50'112.4
2018-Jul-10 00:29N 38°37' E 000°50'812.4
2018-Jul-09 23:48N 38°31' E 000°58'412.2
2018-Jul-09 23:30N 38°29' E 001°01'2212.0
2018-Jul-09 21:42N 38°13' E 001°20'312.1
2018-Jul-09 21:26N 38°11' E 001°23'512.2
2018-Jul-09 21:00N 38°07' E 001°28'612.4
2018-Jul-09 20:30N 38°03' E 001°34'612.3
2018-Jul-09 20:00N 37°59' E 001°39'612.4
2018-Jul-09 19:29N 37°54' E 001°45'712.5
2018-Jul-09 18:57N 37°49' E 001°51'612.6
2018-Jul-09 18:30N 37°45' E 001°56'612.5
2018-Jul-09 18:00N 37°41' E 002°01'612.5
2018-Jul-09 17:30N 37°36' E 002°07'612.7
2018-Jul-09 17:00N 37°32' E 002°13'612.7
2018-Jul-09 16:30N 37°27' E 002°18'612.5
2018-Jul-09 16:00N 37°23' E 002°24'612.3
2018-Jul-09 15:30N 37°19' E 002°29'612.2
2018-Jul-09 15:00N 37°15' E 002°35'612.2
2018-Jul-09 14:30N 37°10' E 002°41'612.3
2018-Jul-09 13:59N 37°06' E 002°46'612.4
2018-Jul-09 13:30N 37°01' E 002°51'612.8
2018-Jul-09 13:00N 36°57' E 002°57'712.8
2018-Jul-09 12:29N 36°52' E 003°03'6 0.3
2018-Jul-08 11:40N 36°46' E 003°04'0 0.0
2018-Jul-08 11:28N 36°46' E 003°04'0 0.0
2018-Jul-08 02:30N 36°46' E 003°04'0 0.0
2018-Jul-08 02:00N 36°46' E 003°04'0 0.0
2018-Jul-08 01:30N 36°46' E 003°04'0 0.0
2018-Jul-08 01:00N 36°46' E 003°04'0 0.0
2018-Jul-08 00:30N 36°46' E 003°04'0 0.0
2018-Jul-08 00:00N 36°46' E 003°04'0 0.0
2018-Jul-07 23:30N 36°46' E 003°04'0 0.0
2018-Jul-07 23:01N 36°46' E 003°04'0 0.0
2018-Jul-07 22:29N 36°46' E 003°04'0 0.0
2018-Jul-07 22:00N 36°46' E 003°04'0 0.0
2018-Jul-07 19:01N 36°46' E 003°04'0 0.3
2018-Jul-07 19:00N 36°46' E 003°04'0 0.0
2018-Jul-07 18:30N 36°46' E 003°04'0 0.0
2018-Jul-07 17:56N 36°46' E 003°04'0 0.0
2018-Jul-07 17:31N 36°46' E 003°04'153 3.2
2018-Jul-05 18:12N 39°14' E 002°17'211.0
2018-Jul-05 18:00N 39°16' E 002°16'11710.7
2018-Jul-05 07:09N 41°13' E 002°11'310.4
2018-Jul-05 06:53N 41°15' E 002°11'4 9.3
2018-Jul-05 06:30N 41°19' E 002°10'1 1.4
2018-Jul-05 06:00N 41°19' E 002°09'0 0.0
2018-Jul-05 05:29N 41°19' E 002°09'0 0.0
2018-Jul-05 04:59N 41°19' E 002°09'0 0.0
2018-Jul-05 04:29N 41°19' E 002°09'0 0.0
2018-Jul-05 04:00N 41°19' E 002°09'0 0.0
2018-Jul-05 03:30N 41°19' E 002°09'0 0.0
2018-Jul-05 03:00N 41°19' E 002°09'0 0.0
2018-Jul-05 02:30N 41°19' E 002°09'0 0.0
2018-Jul-05 02:00N 41°19' E 002°09'0 0.0
2018-Jul-05 01:30N 41°19' E 002°09'0 0.0
2018-Jul-05 01:00N 41°19' E 002°09'0 0.0
2018-Jul-05 00:21N 41°19' E 002°09'0 0.0
2018-Jul-05 00:00N 41°19' E 002°09'0 0.0
2018-Jul-04 23:30N 41°19' E 002°09'0 0.0
2018-Jul-04 23:00N 41°19' E 002°09'0 0.0
2018-Jul-04 22:30N 41°19' E 002°09'0 0.0
2018-Jul-04 22:00N 41°19' E 002°09'0 0.0
2018-Jul-04 21:30N 41°19' E 002°09'0 0.0
2018-Jul-04 21:00N 41°19' E 002°09'0 0.0
2018-Jul-04 20:30N 41°19' E 002°09'0 0.0
2018-Jul-04 20:00N 41°19' E 002°09'0 0.0
2018-Jul-04 19:28N 41°19' E 002°09'0 0.0
2018-Jul-04 18:58N 41°19' E 002°09'0 0.0
2018-Jul-04 18:28N 41°19' E 002°09'0 0.0
2018-Jul-04 17:58N 41°19' E 002°09'0 0.0
2018-Jul-04 17:28N 41°19' E 002°09'0 0.0
2018-Jul-04 16:58N 41°19' E 002°09'0 0.0
2018-Jul-04 16:28N 41°19' E 002°09'0 0.0
2018-Jul-04 15:58N 41°19' E 002°09'0 0.0
2018-Jul-04 15:25N 41°19' E 002°09'0 0.0
2018-Jul-04 14:58N 41°19' E 002°09'0 0.0
2018-Jul-04 14:28N 41°19' E 002°09'0 0.0
2018-Jul-04 13:55N 41°19' E 002°09'0 0.0
2018-Jul-04 13:25N 41°19' E 002°09'0 0.0
2018-Jul-04 12:58N 41°19' E 002°09'0 0.0
2018-Jul-04 12:28N 41°19' E 002°09'0 0.0
2018-Jul-04 11:58N 41°19' E 002°09'0 0.0
2018-Jul-04 11:28N 41°19' E 002°09'0 0.0
2018-Jul-04 10:58N 41°19' E 002°09'0 0.0
2018-Jul-04 10:22N 41°19' E 002°09'0 0.0
2018-Jul-04 09:58N 41°19' E 002°09'0 0.0
2018-Jul-04 09:28N 41°19' E 002°09'0 0.0
2018-Jul-04 08:52N 41°19' E 002°09'0 0.0
2018-Jul-04 08:30N 41°19' E 002°09'2 3.3
2018-Jul-04 08:00N 41°18' E 002°11'2 4.8
2018-Jul-04 07:30N 41°18' E 002°14'2 4.2
2018-Jul-04 07:00N 41°19' E 002°16'2 4.1
2018-Jul-04 06:24N 41°20' E 002°19'0 0.5
2018-Jul-04 05:54N 41°20' E 002°19'0 0.5
2018-Jul-04 05:30N 41°20' E 002°19'0 0.5
2018-Jul-04 05:00N 41°20' E 002°19'1 0.3
2018-Jul-04 02:53N 41°19' E 002°18'0 0.7
2018-Jul-04 02:30N 41°19' E 002°18'4 7.8
2018-Jul-04 02:00N 41°21' E 002°22'710.3
2018-Jul-04 01:20N 41°24' E 002°31'810.1
2018-Jul-04 00:33N 41°28' E 002°40'110.1
2018-Jul-04 00:27N 41°29' E 002°41'1710.2
2018-Jul-03 22:46N 41°37' E 003°01'310.5
2018-Jul-03 22:31N 41°38' E 003°04'710.3
2018-Jul-03 21:49N 41°42' E 003°12'310.2
2018-Jul-03 21:31N 41°43' E 003°16'610.2
2018-Jul-03 20:57N 41°46' E 003°22'910.4
2018-Jul-03 20:03N 41°53' E 003°31'010.3
2018-Jul-03 20:00N 41°54' E 003°32'5010.6
2018-Jul-03 15:18N 42°31' E 004°15'510.9
2018-Jul-03 14:51N 42°35' E 004°19'410.8
2018-Jul-03 14:30N 42°38' E 004°23'510.8
2018-Jul-03 14:00N 42°42' E 004°27'3810.4
2018-Jul-03 10:21N 43°11' E 005°00'410.7
2018-Jul-03 10:00N 43°15' E 004°60'510.8
2018-Jul-03 09:31N 43°20' E 004°58'5 8.9
2018-Jul-03 09:00N 43°24' E 004°55'3 6.4
2018-Jul-03 08:29N 43°25' E 004°50'0 0.0
2018-Jul-03 07:59N 43°25' E 004°50'0 0.0
2018-Jul-03 07:20N 43°25' E 004°50'0 0.0
2018-Jul-03 06:45N 43°25' E 004°50'0 0.0
2018-Jul-03 06:21N 43°25' E 004°50'0 0.0
2018-Jul-03 05:51N 43°25' E 004°50'0 0.0
2018-Jul-03 05:30N 43°25' E 004°50'  

Dump ship's entire track history